createdAt,value
2023-02-08T00:00:33.638Z,18.77
2023-02-08T00:03:04.932Z,18.87
2023-02-08T00:05:36.044Z,21.60
2023-02-08T00:08:07.925Z,19.97
2023-02-08T00:10:39.388Z,23.23
2023-02-08T00:13:11.147Z,17.90
2023-02-08T00:15:45.566Z,20.77
2023-02-08T00:18:16.621Z,21.40
2023-02-08T00:20:48.003Z,22.10
2023-02-08T00:23:19.795Z,18.37
2023-02-08T00:25:50.717Z,20.43
2023-02-08T00:28:22.015Z,22.53
2023-02-08T00:30:53.568Z,22.60
2023-02-08T00:33:24.682Z,23.00
2023-02-08T00:36:01.037Z,24.27
2023-02-08T00:38:32.652Z,20.60
2023-02-08T00:41:03.959Z,21.47
2023-02-08T00:43:35.426Z,23.07
2023-02-08T00:46:08.191Z,22.73
2023-02-08T00:48:39.343Z,19.57
2023-02-08T00:51:13.235Z,19.30
2023-02-08T00:53:45.977Z,21.03
2023-02-08T00:56:17.838Z,16.27
2023-02-08T00:58:48.897Z,19.07
2023-02-08T01:01:19.875Z,23.03
2023-02-08T01:03:51.139Z,23.30
2023-02-08T01:06:22.753Z,21.07
2023-02-08T01:08:53.713Z,22.83
2023-02-08T01:11:26.099Z,19.33
2023-02-08T01:13:58.735Z,21.33
2023-02-08T01:16:32.834Z,22.50
2023-02-08T01:19:05.856Z,19.07
2023-02-08T01:21:38.669Z,18.70
2023-02-08T01:24:10.273Z,23.17
2023-02-08T01:26:42.456Z,22.67
2023-02-08T01:29:13.574Z,21.63
2023-02-08T01:31:45.852Z,25.63
2023-02-08T01:34:16.875Z,24.13
2023-02-08T01:36:48.791Z,21.93
2023-02-08T01:39:19.776Z,22.00
2023-02-08T01:41:50.824Z,23.37
2023-02-08T01:44:57.591Z,26.67
2023-02-08T01:47:29.041Z,20.57
2023-02-08T01:50:19.504Z,21.70
2023-02-08T01:52:50.871Z,22.30
2023-02-08T01:55:24.896Z,20.77
2023-02-08T01:57:58.780Z,21.30
2023-02-08T02:00:30.515Z,21.77
2023-02-08T02:03:02.234Z,20.63
2023-02-08T02:05:37.970Z,24.00
2023-02-08T02:08:10.102Z,22.27
2023-02-08T02:10:43.105Z,18.50
2023-02-08T02:13:16.021Z,28.97
2023-02-08T02:15:47.609Z,19.60
2023-02-08T02:21:12.239Z,18.27
2023-02-08T02:24:42.393Z,18.73
2023-02-08T02:27:30.359Z,21.00
2023-02-08T02:30:28.747Z,20.83
2023-02-08T02:33:29.457Z,21.50
2023-02-08T02:36:04.062Z,23.83
2023-02-08T02:38:42.189Z,20.40
2023-02-08T02:41:19.476Z,16.17
2023-02-08T02:43:53.530Z,22.33
2023-02-08T02:46:28.801Z,21.50
2023-02-08T02:49:03.689Z,23.57
2023-02-08T02:51:38.798Z,21.83
2023-02-08T02:54:12.896Z,16.50
2023-02-08T02:56:46.518Z,20.57
2023-02-08T02:59:19.371Z,25.13
2023-02-08T03:01:50.979Z,21.50
2023-02-08T03:04:42.066Z,20.60
2023-02-08T03:07:15.847Z,20.17
2023-02-08T03:10:00.651Z,20.03
2023-02-08T03:12:51.807Z,21.50
2023-02-08T03:15:27.363Z,20.70
2023-02-08T03:18:04.417Z,19.33
2023-02-08T03:20:38.786Z,27.10
2023-02-08T03:23:13.728Z,22.23
2023-02-08T03:25:48.796Z,18.83
2023-02-08T03:28:24.109Z,21.77
2023-02-08T03:31:00.019Z,19.90
2023-02-08T03:33:35.000Z,18.97
2023-02-08T03:36:10.031Z,23.03
2023-02-08T03:38:44.140Z,23.07
2023-02-08T03:41:17.817Z,22.87
2023-02-08T03:46:32.699Z,24.17
2023-02-08T03:49:06.586Z,25.37
2023-02-08T03:51:40.011Z,24.93
2023-02-08T03:54:13.074Z,25.43
2023-02-08T03:56:47.178Z,24.00
2023-02-08T03:59:20.650Z,25.17
2023-02-08T04:01:54.448Z,20.37
2023-02-08T04:04:27.817Z,25.10
2023-02-08T04:07:00.122Z,23.43
2023-02-08T04:09:30.851Z,22.47
2023-02-08T04:12:01.467Z,26.60
2023-02-08T04:14:32.145Z,21.73
2023-02-08T04:17:02.945Z,25.13
2023-02-08T04:19:33.589Z,22.63
2023-02-08T04:22:04.267Z,22.30
2023-02-08T04:24:34.873Z,16.93
2023-02-08T04:27:06.161Z,19.77
2023-02-08T04:29:36.939Z,21.90
2023-02-08T04:32:09.795Z,25.17
2023-02-08T04:34:40.845Z,21.27
2023-02-08T04:37:12.318Z,19.93
2023-02-08T04:39:43.477Z,24.33
2023-02-08T04:42:14.536Z,22.73
2023-02-08T04:44:45.593Z,23.87
2023-02-08T04:47:16.659Z,28.93
2023-02-08T04:49:47.717Z,22.40
2023-02-08T04:52:18.803Z,24.00
2023-02-08T04:54:49.776Z,27.63
2023-02-08T04:57:21.014Z,25.80
2023-02-08T04:59:51.970Z,25.10
2023-02-08T05:02:22.929Z,24.50
2023-02-08T05:04:53.944Z,28.40
2023-02-08T05:07:24.985Z,27.20
2023-02-08T05:09:55.928Z,19.93
2023-02-08T05:12:27.066Z,23.10
2023-02-08T05:17:37.011Z,25.00
2023-02-08T05:20:09.815Z,23.80
2023-02-08T05:22:40.563Z,24.10
2023-02-08T05:25:12.015Z,27.90
2023-02-08T05:27:43.067Z,24.00
2023-02-08T05:30:15.227Z,23.13
2023-02-08T05:32:45.877Z,23.50
2023-02-08T05:35:16.728Z,30.23
2023-02-08T05:37:47.483Z,29.17
2023-02-08T05:40:18.631Z,26.07
2023-02-08T05:42:49.263Z,25.27
2023-02-08T05:45:20.257Z,27.17
2023-02-08T05:47:50.912Z,24.30
2023-02-08T05:50:21.775Z,27.57
2023-02-08T05:52:52.556Z,28.20
2023-02-08T05:55:23.246Z,25.07
2023-02-08T05:57:53.971Z,25.43
2023-02-08T06:00:24.852Z,24.60
2023-02-08T06:02:55.483Z,24.50
2023-02-08T06:05:26.563Z,24.17
2023-02-08T06:07:57.557Z,23.03
2023-02-08T06:10:28.308Z,29.77
2023-02-08T06:12:58.936Z,25.80
2023-02-08T06:15:29.893Z,24.70
2023-02-08T06:18:00.597Z,25.20
2023-02-08T06:20:31.352Z,23.90
2023-02-08T06:23:02.028Z,25.87
2023-02-08T06:25:32.997Z,24.30
2023-02-08T06:28:04.149Z,28.67
2023-02-08T06:30:35.082Z,28.60
2023-02-08T06:33:06.098Z,24.23
2023-02-08T06:35:36.874Z,25.93
2023-02-08T06:38:07.594Z,26.30
2023-02-08T06:40:38.697Z,30.43
2023-02-08T06:43:10.083Z,28.37
2023-02-08T06:45:43.023Z,29.87
2023-02-08T06:48:14.250Z,31.37
2023-02-08T06:50:45.393Z,36.27
2023-02-08T06:53:16.289Z,24.53
2023-02-08T06:55:50.135Z,26.50
2023-02-08T06:58:21.479Z,27.53
2023-02-08T07:00:52.167Z,27.77
2023-02-08T07:03:23.504Z,26.20
2023-02-08T07:06:04.560Z,31.63
2023-02-08T07:11:09.203Z,24.93
2023-02-08T07:13:40.871Z,26.40
2023-02-08T07:16:13.007Z,28.43
2023-02-08T07:18:43.996Z,26.17
2023-02-08T07:21:15.415Z,30.03
2023-02-08T07:23:46.346Z,25.83
2023-02-08T07:26:17.427Z,24.00
2023-02-08T07:28:48.356Z,25.27
2023-02-08T07:31:20.263Z,26.10
2023-02-08T07:33:50.983Z,30.73
2023-02-08T07:36:21.647Z,28.33
2023-02-08T07:38:52.324Z,27.87
2023-02-08T07:41:23.043Z,28.83
2023-02-08T07:43:53.828Z,26.70
2023-02-08T07:46:24.793Z,27.57
2023-02-08T07:48:55.503Z,27.00
2023-02-08T07:51:26.359Z,27.13
2023-02-08T07:53:57.286Z,24.00
2023-02-08T07:56:29.116Z,25.60
2023-02-08T07:58:59.963Z,25.50
2023-02-08T08:01:30.864Z,29.23
2023-02-08T08:04:01.629Z,27.30
2023-02-08T08:06:32.499Z,27.83
2023-02-08T08:09:03.253Z,25.77
2023-02-08T08:11:34.204Z,29.27
2023-02-08T08:14:05.004Z,33.77
2023-02-08T08:16:35.867Z,28.67
2023-02-08T08:19:06.819Z,29.53
2023-02-08T08:21:37.434Z,31.13
2023-02-08T08:24:08.707Z,27.87
2023-02-08T08:26:39.475Z,31.00
2023-02-08T08:29:10.107Z,30.43
2023-02-08T08:31:42.363Z,30.80
2023-02-08T08:34:13.158Z,27.37
2023-02-08T08:36:44.117Z,30.63
2023-02-08T08:39:14.787Z,28.77
2023-02-08T08:41:45.458Z,30.83
2023-02-08T08:44:16.190Z,25.80
2023-02-08T08:46:47.124Z,32.53
2023-02-08T08:49:18.005Z,31.53
2023-02-08T08:51:48.744Z,31.10
2023-02-08T08:54:20.001Z,29.67
2023-02-08T08:56:50.941Z,34.27
2023-02-08T08:59:21.619Z,29.20
2023-02-08T09:01:52.385Z,27.37
2023-02-08T09:04:23.164Z,29.83
2023-02-08T09:06:54.737Z,26.53
2023-02-08T09:09:25.620Z,35.43
2023-02-08T09:11:56.288Z,49.03
2023-02-08T09:14:27.239Z,34.10
2023-02-08T09:16:57.992Z,31.03
2023-02-08T09:22:27.100Z,28.17
2023-02-08T09:24:58.335Z,28.43
2023-02-08T09:27:29.703Z,27.60
2023-02-08T09:30:00.865Z,24.63
2023-02-08T09:32:35.185Z,34.70
2023-02-08T09:35:06.451Z,32.63
2023-02-08T09:37:37.792Z,25.60
2023-02-08T09:40:14.047Z,29.87
2023-02-08T09:42:47.877Z,26.70
2023-02-08T09:48:16.074Z,33.17
2023-02-08T09:50:50.170Z,25.30
2023-02-08T09:53:23.976Z,25.83
2023-02-08T09:55:59.997Z,26.27
2023-02-08T09:58:33.629Z,28.67
2023-02-08T10:01:07.601Z,29.27
2023-02-08T10:03:41.562Z,25.33
2023-02-08T10:06:15.855Z,25.03
2023-02-08T10:08:48.056Z,27.93
2023-02-08T10:11:32.248Z,27.20
2023-02-08T10:14:23.028Z,29.17
2023-02-08T10:17:06.185Z,28.70
2023-02-08T10:19:50.885Z,24.90
2023-02-08T10:22:27.721Z,33.90
2023-02-08T10:25:24.740Z,31.50
2023-02-08T10:28:03.348Z,23.87
2023-02-08T10:33:19.650Z,26.57
2023-02-08T10:35:52.196Z,30.03
2023-02-08T10:38:45.250Z,24.03
2023-02-08T10:41:07.079Z,30.83
2023-02-08T10:46:22.760Z,24.27
2023-02-08T10:49:00.293Z,34.33
2023-02-08T10:51:32.225Z,26.87
2023-02-08T10:54:03.544Z,25.27
2023-02-08T10:56:45.462Z,26.30
2023-02-08T10:59:21.365Z,22.37
2023-02-08T11:01:54.169Z,24.13
2023-02-08T11:04:25.246Z,22.57
2023-02-08T11:06:56.180Z,23.50
2023-02-08T11:09:30.028Z,24.13
2023-02-08T11:12:02.357Z,27.53
2023-02-08T11:14:46.102Z,27.07
2023-02-08T11:17:15.641Z,21.53
2023-02-08T11:19:47.228Z,23.50
2023-02-08T11:22:20.399Z,23.37
2023-02-08T11:24:58.421Z,23.47
2023-02-08T11:27:37.527Z,22.60
2023-02-08T11:30:24.708Z,23.57
2023-02-08T11:33:19.068Z,19.70
2023-02-08T11:35:58.003Z,21.53
2023-02-08T11:38:29.561Z,19.77
2023-02-08T11:41:03.023Z,22.40
2023-02-08T11:43:36.193Z,22.30
2023-02-08T11:46:07.757Z,17.73
2023-02-08T11:48:43.498Z,20.27
2023-02-08T11:51:16.762Z,18.60
2023-02-08T11:53:51.018Z,21.03
2023-02-08T11:56:23.726Z,23.27
2023-02-08T12:01:44.573Z,19.37
2023-02-08T12:04:17.654Z,20.73
2023-02-08T12:07:05.287Z,15.37
2023-02-08T12:10:07.852Z,16.57
2023-02-08T12:12:47.419Z,14.17
2023-02-08T12:15:24.535Z,14.03
2023-02-08T12:21:01.367Z,14.03
2023-02-08T12:23:42.612Z,9.97
2023-02-08T12:26:37.751Z,15.03
2023-02-08T12:29:17.189Z,11.93
2023-02-08T12:31:59.010Z,12.23
2023-02-08T12:34:35.357Z,16.50
2023-02-08T12:37:34.675Z,15.63
2023-02-08T12:40:29.475Z,13.87
2023-02-08T12:43:06.525Z,13.23
2023-02-08T12:46:00.013Z,13.17
2023-02-08T12:48:39.494Z,10.83
2023-02-08T12:51:15.425Z,11.30
2023-02-08T12:53:49.235Z,11.30
2023-02-08T12:56:22.808Z,12.47
2023-02-08T12:59:01.936Z,9.73
2023-02-08T13:01:32.532Z,15.00
2023-02-08T13:04:06.926Z,12.63
2023-02-08T13:06:40.557Z,14.33
2023-02-08T13:09:16.324Z,13.17
2023-02-08T13:11:50.794Z,10.97
2023-02-08T13:14:27.484Z,13.60
2023-02-08T13:17:02.342Z,12.80
2023-02-08T13:19:36.454Z,13.13
2023-02-08T13:22:07.622Z,12.90
2023-02-08T13:24:41.189Z,12.43
2023-02-08T13:27:18.498Z,17.73
2023-02-08T13:29:51.888Z,9.73
2023-02-08T13:32:29.680Z,11.57
2023-02-08T13:37:41.376Z,16.93
2023-02-08T13:40:23.602Z,10.30
2023-02-08T13:42:57.942Z,9.63
2023-02-08T13:45:32.034Z,13.10
2023-02-08T13:48:04.952Z,9.43
2023-02-08T13:50:46.108Z,8.37
2023-02-08T13:53:18.425Z,12.17
2023-02-08T13:56:06.828Z,10.97
2023-02-08T13:59:09.894Z,10.82
2023-02-08T14:01:43.643Z,9.33
2023-02-08T14:04:33.189Z,9.07
2023-02-08T14:07:16.312Z,9.10
2023-02-08T14:10:08.531Z,8.73
2023-02-08T14:12:43.778Z,8.63
2023-02-08T14:15:37.792Z,11.37
2023-02-08T14:18:25.820Z,11.22
2023-02-08T14:21:05.215Z,7.83
2023-02-08T14:26:20.954Z,9.70
2023-02-08T14:28:56.460Z,7.20
2023-02-08T14:31:38.434Z,11.40
2023-02-08T14:34:15.523Z,13.97
2023-02-08T14:36:46.742Z,6.70
2023-02-08T14:39:29.186Z,15.47
2023-02-08T14:42:03.258Z,4.80
2023-02-08T14:45:05.314Z,6.13
2023-02-08T14:50:46.409Z,7.50
2023-02-08T14:53:42.577Z,9.13
2023-02-08T14:56:20.469Z,10.47
2023-02-08T14:58:55.332Z,8.90
2023-02-08T15:01:28.972Z,9.27
2023-02-08T15:04:02.829Z,12.10
2023-02-08T15:07:00.170Z,11.03
2023-02-08T15:09:33.345Z,8.10
2023-02-08T15:12:05.974Z,6.47
2023-02-08T15:14:39.758Z,6.57
2023-02-08T15:17:19.589Z,4.50
2023-02-08T15:19:51.853Z,5.83
2023-02-08T15:22:36.051Z,7.07
2023-02-08T15:25:25.531Z,7.33
2023-02-08T15:27:58.258Z,8.63
2023-02-08T15:30:33.961Z,6.13
2023-02-08T15:33:06.934Z,6.70
2023-02-08T15:35:39.102Z,6.50
2023-02-08T15:38:14.867Z,6.90
2023-02-08T15:40:47.911Z,5.93
2023-02-08T15:43:20.214Z,5.23
2023-02-08T15:46:00.301Z,6.83
2023-02-08T15:48:33.330Z,6.93
2023-02-08T15:51:07.355Z,4.77
2023-02-08T15:53:40.481Z,5.77
2023-02-08T15:56:13.465Z,6.90
2023-02-08T15:58:47.405Z,8.90
2023-02-08T16:01:21.475Z,5.70
2023-02-08T16:03:55.430Z,7.33
2023-02-08T16:06:29.017Z,6.83
2023-02-08T16:09:02.680Z,8.10
2023-02-08T16:11:35.452Z,5.80
2023-02-08T16:14:28.858Z,5.47
2023-02-08T16:16:59.478Z,4.50
2023-02-08T16:19:32.135Z,12.10
2023-02-08T16:22:26.699Z,7.80
2023-02-08T16:25:17.786Z,9.10
2023-02-08T16:27:51.104Z,7.95
2023-02-08T16:30:24.404Z,10.03
2023-02-08T16:32:55.278Z,7.70
2023-02-08T16:35:29.719Z,8.53
2023-02-08T16:38:03.004Z,8.70
2023-02-08T16:40:48.441Z,10.97
2023-02-08T16:43:24.782Z,11.07
2023-02-08T16:46:21.410Z,8.97
2023-02-08T16:48:54.295Z,7.63
2023-02-08T16:51:27.983Z,7.57
2023-02-08T16:54:01.147Z,7.90
2023-02-08T16:56:32.067Z,8.63
2023-02-08T16:59:02.772Z,7.07
2023-02-08T17:01:34.002Z,6.73
2023-02-08T17:04:04.770Z,7.03
2023-02-08T17:06:38.273Z,9.80
2023-02-08T17:09:10.614Z,8.83
2023-02-08T17:11:41.696Z,8.60
2023-02-08T17:14:12.400Z,7.10
2023-02-08T17:16:44.033Z,5.43
2023-02-08T17:19:17.783Z,10.03
2023-02-08T17:21:49.206Z,5.00
2023-02-08T17:24:20.974Z,5.80
2023-02-08T17:26:51.963Z,5.80
2023-02-08T17:29:22.765Z,7.03
2023-02-08T17:31:53.667Z,11.37
2023-02-08T17:34:24.768Z,6.83
2023-02-08T17:36:56.208Z,10.53
2023-02-08T17:39:27.382Z,6.83
2023-02-08T17:41:59.017Z,10.40
2023-02-08T17:44:30.376Z,5.13
2023-02-08T17:47:01.137Z,9.00
2023-02-08T17:49:32.346Z,11.00
2023-02-08T17:52:03.155Z,5.17
2023-02-08T17:54:35.489Z,6.13
2023-02-08T17:57:08.496Z,6.27
2023-02-08T17:59:41.792Z,9.77
2023-02-08T18:02:12.501Z,7.63
2023-02-08T18:04:43.196Z,8.87
2023-02-08T18:07:13.868Z,9.20
2023-02-08T18:09:45.300Z,7.97
2023-02-08T18:12:16.492Z,9.73
2023-02-08T18:14:47.473Z,13.63
2023-02-08T18:17:18.095Z,10.17
2023-02-08T18:19:48.737Z,9.23
2023-02-08T18:22:21.807Z,12.50
2023-02-08T18:24:54.500Z,10.77
2023-02-08T18:27:27.416Z,10.83
2023-02-08T18:29:58.252Z,8.20
2023-02-08T18:35:09.116Z,10.47
2023-02-08T18:37:41.179Z,9.58
2023-02-08T18:40:14.251Z,11.63
2023-02-08T18:42:45.121Z,10.57
2023-02-08T18:45:15.731Z,16.03
2023-02-08T18:47:46.317Z,12.53
2023-02-08T18:50:17.366Z,8.67
2023-02-08T18:52:47.988Z,15.87
2023-02-08T18:55:37.231Z,9.30
2023-02-08T18:58:08.215Z,10.17
2023-02-08T19:00:39.238Z,11.17
2023-02-08T19:03:10.719Z,11.23
2023-02-08T19:05:42.069Z,13.83
2023-02-08T19:08:13.677Z,16.70
2023-02-08T19:10:45.100Z,14.77
2023-02-08T19:13:15.701Z,11.77
2023-02-08T19:15:46.553Z,16.47
2023-02-08T19:18:17.182Z,8.70
2023-02-08T19:20:48.035Z,12.50
2023-02-08T19:23:19.309Z,8.33
2023-02-08T19:25:51.602Z,8.37
2023-02-08T19:28:22.892Z,10.20
2023-02-08T19:30:55.405Z,9.53
2023-02-08T19:33:27.511Z,8.10
2023-02-08T19:35:58.537Z,9.10
2023-02-08T19:38:30.155Z,9.20
2023-02-08T19:41:01.707Z,7.10
2023-02-08T19:43:32.738Z,8.33
2023-02-08T19:46:04.141Z,8.33
2023-02-08T19:48:35.889Z,7.72
2023-02-08T19:51:08.706Z,8.27
2023-02-08T19:53:40.468Z,9.60
2023-02-08T19:56:14.367Z,7.90
2023-02-08T19:58:46.541Z,6.73
2023-02-08T20:01:22.417Z,9.33
2023-02-08T20:03:55.031Z,12.23
2023-02-08T20:06:28.938Z,9.47
2023-02-08T20:09:00.706Z,11.67
2023-02-08T20:11:34.083Z,11.40
2023-02-08T20:14:06.413Z,13.13
2023-02-08T20:16:37.621Z,11.10
2023-02-08T20:19:10.614Z,10.13
2023-02-08T20:21:43.946Z,15.53
2023-02-08T20:24:15.019Z,10.27
2023-02-08T20:26:49.706Z,13.40
2023-02-08T20:29:22.812Z,10.50
2023-02-08T20:31:56.037Z,11.67
2023-02-08T20:34:27.028Z,10.87
2023-02-08T20:37:07.390Z,10.93
2023-02-08T20:39:31.912Z,9.10
2023-02-08T20:42:02.541Z,15.50
2023-02-08T20:44:33.249Z,14.30
2023-02-08T20:47:04.079Z,10.17
2023-02-08T20:49:35.016Z,11.97
2023-02-08T20:52:06.315Z,21.60
2023-02-08T20:54:37.105Z,13.73
2023-02-08T20:57:08.744Z,13.17
2023-02-08T20:59:40.711Z,12.63
2023-02-08T21:02:15.678Z,12.80
2023-02-08T21:04:46.980Z,11.20
2023-02-08T21:07:18.788Z,10.47
2023-02-08T21:09:50.058Z,12.40
2023-02-08T21:12:21.871Z,14.27
2023-02-08T21:14:52.642Z,15.10
2023-02-08T21:17:23.235Z,18.33
2023-02-08T21:19:54.109Z,19.47
2023-02-08T21:22:24.725Z,50.77
2023-02-08T21:24:55.716Z,22.93
2023-02-08T21:27:26.333Z,14.20
2023-02-08T21:29:57.268Z,12.03
2023-02-08T21:32:27.873Z,10.90
2023-02-08T21:34:58.729Z,17.53
2023-02-08T21:37:29.410Z,12.93
2023-02-08T21:39:59.985Z,14.83
2023-02-08T21:42:30.704Z,13.00
2023-02-08T21:45:01.439Z,16.03
2023-02-08T21:47:32.054Z,15.23
2023-02-08T21:50:20.374Z,15.47
2023-02-08T21:53:09.347Z,16.63
2023-02-08T21:55:39.936Z,13.17
2023-02-08T21:58:10.626Z,14.57
2023-02-08T22:00:41.318Z,17.60
2023-02-08T22:03:12.038Z,15.07
2023-02-08T22:05:43.117Z,17.60
2023-02-08T22:08:15.145Z,12.73
2023-02-08T22:10:57.631Z,14.00
2023-02-08T22:13:18.073Z,15.23
2023-02-08T22:15:48.704Z,14.07
2023-02-08T22:18:19.436Z,10.10
2023-02-08T22:20:53.148Z,11.63
2023-02-08T22:23:24.130Z,11.90
2023-02-08T22:25:54.953Z,12.13
2023-02-08T22:28:25.664Z,13.10
2023-02-08T22:30:56.539Z,87.93
2023-02-08T22:33:27.168Z,29.43
2023-02-08T22:35:57.974Z,17.80
2023-02-08T22:38:28.592Z,16.90
2023-02-08T22:40:59.174Z,13.97
2023-02-08T22:43:30.913Z,16.00
2023-02-08T22:46:02.555Z,16.53
2023-02-08T22:48:33.738Z,20.13
2023-02-08T22:51:09.464Z,19.30
2023-02-08T22:53:40.261Z,24.37
2023-02-08T22:56:11.649Z,15.23
2023-02-08T22:58:42.632Z,19.67
2023-02-08T23:01:14.083Z,25.77
2023-02-08T23:03:45.243Z,18.70
2023-02-08T23:06:18.252Z,28.60
2023-02-08T23:08:49.282Z,24.73
2023-02-08T23:11:21.393Z,17.70
2023-02-08T23:13:52.182Z,19.57
2023-02-08T23:16:22.869Z,17.60
2023-02-08T23:18:53.617Z,14.20
2023-02-08T23:21:24.337Z,16.67
2023-02-08T23:23:54.959Z,21.17
2023-02-08T23:26:26.303Z,16.03
2023-02-08T23:28:57.002Z,17.87
2023-02-08T23:31:28.198Z,18.27
2023-02-08T23:33:59.495Z,18.00
2023-02-08T23:36:30.633Z,18.17
2023-02-08T23:39:03.471Z,15.33
2023-02-08T23:41:34.733Z,17.53
2023-02-08T23:44:05.355Z,21.33
2023-02-08T23:46:36.146Z,22.40
2023-02-08T23:49:06.941Z,18.13
2023-02-08T23:51:37.986Z,22.37
2023-02-08T23:54:10.069Z,20.60
2023-02-08T23:56:41.675Z,19.10
2023-02-08T23:59:13.611Z,18.17
